createdAt,value
2018-07-20T00:03:26.374Z,14.10
2018-07-20T00:05:55.110Z,14.20
2018-07-20T00:08:23.650Z,14.10
2018-07-20T00:10:52.198Z,14.10
2018-07-20T00:13:20.727Z,14.10
2018-07-20T00:15:49.300Z,14.10
2018-07-20T00:18:17.856Z,13.90
2018-07-20T00:20:46.585Z,13.90
2018-07-20T00:23:15.236Z,14.00
2018-07-20T00:25:43.769Z,13.90
2018-07-20T00:28:12.337Z,13.90
2018-07-20T00:30:40.844Z,13.90
2018-07-20T00:35:37.696Z,13.60
2018-07-20T00:38:06.311Z,13.60
2018-07-20T00:40:34.868Z,13.60
2018-07-20T00:43:03.404Z,13.50
2018-07-20T00:45:31.948Z,13.40
2018-07-20T00:48:00.486Z,13.30
2018-07-20T00:50:29.003Z,13.50
2018-07-20T00:52:58.557Z,13.50
2018-07-20T00:55:27.082Z,13.40
2018-07-20T00:57:56.609Z,13.30
2018-07-20T01:00:25.231Z,13.40
2018-07-20T01:02:53.768Z,13.30
2018-07-20T01:05:23.036Z,13.20
2018-07-20T01:07:51.593Z,13.40
2018-07-20T01:10:20.253Z,13.30
2018-07-20T01:12:48.790Z,13.20
2018-07-20T01:15:17.412Z,13.20
2018-07-20T01:17:45.944Z,13.10
2018-07-20T01:20:14.720Z,13.00
2018-07-20T01:22:43.925Z,13.10
2018-07-20T01:25:12.485Z,12.90
2018-07-20T01:27:40.994Z,12.90
2018-07-20T01:30:09.540Z,12.90
2018-07-20T01:35:06.331Z,13.00
2018-07-20T01:37:34.853Z,13.00
2018-07-20T01:40:03.450Z,13.00
2018-07-20T01:42:31.963Z,12.90
2018-07-20T01:45:00.477Z,12.80
2018-07-20T01:47:29.019Z,12.70
2018-07-20T01:51:26.710Z,12.50
2018-07-20T01:53:55.272Z,12.40
2018-07-20T01:56:23.784Z,12.30
2018-07-20T01:58:52.471Z,12.30
2018-07-20T02:01:21.019Z,12.30
2018-07-20T02:03:49.539Z,12.20
2018-07-20T02:06:18.077Z,12.30
2018-07-20T02:08:46.845Z,12.40
2018-07-20T02:11:15.387Z,12.30
2018-07-20T02:13:43.919Z,12.30
2018-07-20T02:16:12.460Z,12.30
2018-07-20T02:18:40.990Z,12.30
2018-07-20T02:21:09.513Z,12.50
2018-07-20T02:23:38.049Z,12.60
2018-07-20T02:26:06.585Z,12.30
2018-07-20T02:28:35.090Z,12.30
2018-07-20T02:31:03.634Z,12.40
2018-07-20T02:33:32.149Z,12.20
2018-07-20T02:36:00.682Z,12.10
2018-07-20T02:38:29.314Z,12.10
2018-07-20T02:40:57.864Z,12.20
2018-07-20T02:43:26.383Z,12.10
2018-07-20T02:45:54.967Z,12.10
2018-07-20T02:48:23.489Z,12.10
2018-07-20T02:50:52.526Z,12.30
2018-07-20T02:53:21.055Z,12.00
2018-07-20T02:55:49.568Z,11.80
2018-07-20T02:58:18.389Z,11.90
2018-07-20T03:00:46.963Z,11.90
2018-07-20T03:03:15.483Z,12.00
2018-07-20T03:05:44.011Z,11.90
2018-07-20T03:08:12.683Z,11.80
2018-07-20T03:10:41.183Z,11.80
2018-07-20T03:13:09.750Z,11.90
2018-07-20T03:15:38.578Z,11.80
2018-07-20T03:18:07.178Z,11.60
2018-07-20T03:20:35.857Z,11.90
2018-07-20T03:23:04.409Z,12.10
2018-07-20T03:25:32.930Z,12.00
2018-07-20T03:28:01.467Z,11.90
2018-07-20T03:32:58.261Z,11.90
2018-07-20T03:35:26.819Z,11.90
2018-07-20T03:37:55.349Z,11.80
2018-07-20T03:40:23.917Z,11.80
2018-07-20T03:42:52.836Z,11.80
2018-07-20T03:45:24.389Z,11.90
2018-07-20T03:47:52.917Z,11.80
2018-07-20T03:50:21.449Z,11.60
2018-07-20T03:52:49.981Z,11.60
2018-07-20T03:55:18.708Z,11.70
2018-07-20T03:57:47.577Z,11.90
2018-07-20T04:00:16.414Z,11.80
2018-07-20T04:02:44.945Z,11.70
2018-07-20T04:05:13.460Z,11.70
2018-07-20T04:07:41.986Z,11.70
2018-07-20T04:10:10.597Z,11.80
2018-07-20T04:12:39.323Z,11.80
2018-07-20T04:15:08.540Z,11.80
2018-07-20T04:17:40.565Z,12.00
2018-07-20T04:20:09.126Z,12.10
2018-07-20T04:22:37.660Z,12.30
2018-07-20T04:25:06.739Z,12.40
2018-07-20T04:27:35.871Z,12.40
2018-07-20T04:30:10.377Z,12.50
2018-07-20T04:32:38.977Z,12.60
2018-07-20T04:35:08.249Z,12.50
2018-07-20T04:37:36.933Z,12.60
2018-07-20T04:40:05.840Z,12.80
2018-07-20T04:42:34.702Z,13.00
2018-07-20T04:45:03.255Z,13.10
2018-07-20T04:47:31.797Z,13.30
2018-07-20T04:50:00.487Z,13.30
2018-07-20T04:52:29.016Z,13.40
2018-07-20T04:54:57.578Z,13.70
2018-07-20T04:57:26.223Z,13.90
2018-07-20T04:59:54.846Z,14.10
2018-07-20T05:02:23.586Z,14.50
2018-07-20T05:04:52.097Z,14.70
2018-07-20T05:07:20.588Z,14.90
2018-07-20T05:09:49.250Z,15.00
2018-07-20T05:12:17.772Z,15.10
2018-07-20T05:14:46.274Z,15.20
2018-07-20T05:17:14.843Z,15.30
2018-07-20T05:19:43.358Z,15.50
2018-07-20T05:22:11.875Z,15.50
2018-07-20T05:24:40.420Z,15.60
2018-07-20T05:27:08.912Z,15.60
2018-07-20T05:29:37.445Z,15.80
2018-07-20T05:32:06.423Z,15.80
2018-07-20T05:34:34.953Z,16.00
2018-07-20T05:37:03.698Z,16.30
2018-07-20T05:39:32.238Z,16.40
2018-07-20T05:42:00.811Z,16.60
2018-07-20T05:44:29.936Z,16.60
2018-07-20T05:46:58.483Z,16.70
2018-07-20T05:49:27.114Z,16.80
2018-07-20T05:51:55.661Z,16.80
2018-07-20T05:54:24.193Z,17.00
2018-07-20T05:56:52.698Z,17.10
2018-07-20T05:59:21.408Z,16.80
2018-07-20T06:01:50.001Z,16.80
2018-07-20T06:04:18.530Z,17.10
2018-07-20T06:06:47.076Z,17.30
2018-07-20T06:09:15.630Z,17.60
2018-07-20T06:11:44.144Z,17.70
2018-07-20T06:14:12.816Z,17.60
2018-07-20T06:16:41.366Z,17.70
2018-07-20T06:19:10.036Z,17.60
2018-07-20T06:21:38.569Z,17.80
2018-07-20T06:24:07.282Z,17.90
2018-07-20T06:26:35.803Z,18.00
2018-07-20T06:29:04.382Z,18.30
2018-07-20T06:31:32.985Z,18.40
2018-07-20T06:34:03.108Z,19.00
2018-07-20T06:36:32.243Z,19.10
2018-07-20T06:39:00.778Z,19.40
2018-07-20T06:41:29.287Z,19.70
2018-07-20T06:43:57.821Z,20.00
2018-07-20T06:46:26.361Z,20.40
2018-07-20T06:48:54.884Z,20.30
2018-07-20T06:51:23.442Z,20.70
2018-07-20T06:53:51.998Z,20.80
2018-07-20T06:56:20.520Z,21.30
2018-07-20T06:58:49.417Z,22.20
2018-07-20T07:01:18.133Z,22.90
2018-07-20T07:03:46.673Z,23.00
2018-07-20T07:06:15.204Z,23.50
2018-07-20T07:08:43.757Z,23.80
2018-07-20T07:11:12.311Z,24.70
2018-07-20T07:13:40.810Z,25.30
2018-07-20T07:16:09.360Z,25.00
2018-07-20T07:18:38.507Z,25.50
2018-07-20T07:21:07.129Z,25.10
2018-07-20T07:23:36.054Z,24.10
2018-07-20T07:26:04.816Z,25.00
2018-07-20T07:28:33.453Z,24.40
2018-07-20T07:31:02.020Z,24.90
2018-07-20T07:33:30.539Z,25.90
2018-07-20T07:35:59.049Z,26.50
2018-07-20T07:38:27.608Z,24.90
2018-07-20T07:40:56.180Z,26.10
2018-07-20T07:43:24.723Z,26.90
2018-07-20T07:45:53.286Z,26.40
2018-07-20T07:48:21.804Z,26.70
2018-07-20T07:50:50.344Z,27.40
2018-07-20T07:53:18.892Z,26.90
2018-07-20T07:55:47.991Z,26.00
2018-07-20T07:58:16.508Z,25.60
2018-07-20T08:00:45.067Z,26.40
2018-07-20T08:03:13.700Z,26.80
2018-07-20T08:05:42.206Z,24.60
2018-07-20T08:08:10.782Z,25.30
2018-07-20T08:10:39.311Z,25.00
2018-07-20T08:16:01.721Z,26.00
2018-07-20T08:18:31.048Z,26.30
2018-07-20T08:20:59.570Z,25.60
2018-07-20T08:23:29.180Z,26.30
2018-07-20T08:25:57.729Z,25.90
2018-07-20T08:28:26.613Z,25.90
2018-07-20T08:30:55.102Z,25.50
2018-07-20T08:33:23.681Z,25.30
2018-07-20T08:35:52.208Z,25.80
2018-07-20T08:38:21.427Z,25.80
2018-07-20T08:40:50.071Z,25.70
2018-07-20T08:43:18.638Z,26.10
2018-07-20T08:45:47.700Z,25.80
2018-07-20T08:48:16.274Z,25.60
2018-07-20T08:50:44.933Z,26.10
2018-07-20T08:53:13.691Z,26.50
2018-07-20T08:55:42.278Z,27.30
2018-07-20T08:58:10.862Z,27.10
2018-07-20T09:00:39.577Z,27.20
2018-07-20T09:03:08.198Z,26.90
2018-07-20T09:05:38.289Z,26.90
2018-07-20T09:08:06.823Z,27.90
2018-07-20T09:10:35.361Z,27.90
2018-07-20T09:13:03.930Z,27.90
2018-07-20T09:18:00.641Z,28.30
2018-07-20T09:20:29.186Z,27.80
2018-07-20T09:22:57.955Z,27.60
2018-07-20T09:25:26.477Z,28.30
2018-07-20T09:27:55.000Z,28.20
2018-07-20T09:30:23.578Z,28.50
2018-07-20T09:32:52.084Z,29.10
2018-07-20T09:35:21.431Z,30.00
2018-07-20T09:37:50.836Z,30.30
2018-07-20T09:40:20.661Z,29.10
2018-07-20T09:42:49.205Z,29.20
2018-07-20T09:45:18.518Z,29.20
2018-07-20T09:47:47.066Z,29.60
2018-07-20T09:50:15.632Z,29.50
2018-07-20T09:52:44.970Z,29.60
2018-07-20T09:55:13.728Z,30.00
2018-07-20T09:57:42.244Z,29.20
2018-07-20T10:00:10.887Z,28.50
2018-07-20T10:02:39.510Z,28.70
2018-07-20T10:05:08.119Z,29.10
2018-07-20T10:07:36.622Z,29.20
2018-07-20T10:10:05.217Z,30.30
2018-07-20T10:12:33.766Z,29.80
2018-07-20T10:15:02.298Z,30.10
2018-07-20T10:17:31.559Z,30.00
2018-07-20T10:20:00.085Z,30.60
2018-07-20T10:22:28.605Z,31.90
2018-07-20T10:24:57.228Z,30.90
2018-07-20T10:27:25.758Z,30.60
2018-07-20T10:29:54.274Z,30.20
2018-07-20T10:34:52.209Z,30.50
2018-07-20T10:37:20.726Z,31.50
2018-07-20T10:39:49.262Z,31.40
2018-07-20T10:42:17.849Z,31.10
2018-07-20T10:44:46.350Z,31.00
2018-07-20T10:47:15.608Z,32.20
2018-07-20T10:49:44.112Z,32.40
2018-07-20T10:52:12.681Z,32.40
2018-07-20T10:54:41.254Z,32.90
2018-07-20T10:57:09.808Z,31.30
2018-07-20T10:59:38.347Z,31.50
2018-07-20T11:02:06.945Z,32.40
2018-07-20T11:04:35.472Z,32.10
2018-07-20T11:07:04.023Z,31.90
2018-07-20T11:09:32.598Z,32.50
2018-07-20T11:12:01.156Z,33.00
2018-07-20T11:14:30.456Z,30.50
2018-07-20T11:16:59.032Z,31.70
2018-07-20T11:19:27.802Z,31.50
2018-07-20T11:21:57.143Z,33.60
2018-07-20T11:24:25.680Z,33.70
2018-07-20T11:26:54.207Z,33.10
2018-07-20T11:29:23.138Z,33.10
2018-07-20T11:31:51.690Z,31.40
2018-07-20T11:34:20.213Z,33.60
2018-07-20T11:36:48.760Z,33.60
2018-07-20T11:39:17.418Z,32.40
2018-07-20T11:41:45.991Z,33.60
2018-07-20T11:44:15.569Z,34.00
2018-07-20T11:46:44.151Z,34.70
2018-07-20T11:49:12.656Z,32.50
2018-07-20T11:51:41.223Z,31.90
2018-07-20T11:54:09.820Z,31.00
2018-07-20T11:56:38.324Z,32.80
2018-07-20T11:59:06.932Z,33.10
2018-07-20T12:01:35.485Z,33.40
2018-07-20T12:06:32.268Z,34.20
2018-07-20T12:09:00.814Z,33.90
2018-07-20T12:11:29.369Z,34.30
2018-07-20T12:13:57.887Z,34.70
2018-07-20T12:16:26.411Z,34.80
2018-07-20T12:18:55.948Z,36.60
2018-07-20T12:21:24.461Z,33.70
2018-07-20T12:23:52.994Z,32.80
2018-07-20T12:26:21.527Z,33.80
2018-07-20T12:28:50.806Z,35.10
2018-07-20T12:31:19.377Z,33.90
2018-07-20T12:33:47.917Z,32.80
2018-07-20T12:36:16.460Z,32.70
2018-07-20T12:38:45.677Z,31.60
2018-07-20T12:41:14.221Z,33.90
2018-07-20T12:43:42.778Z,35.80
2018-07-20T12:46:11.448Z,33.80
2018-07-20T12:48:39.967Z,34.40
2018-07-20T12:51:08.535Z,34.00
2018-07-20T12:53:37.171Z,34.50
2018-07-20T12:56:05.716Z,34.40
2018-07-20T12:58:34.307Z,35.50
2018-07-20T13:01:02.888Z,35.90
2018-07-20T13:03:32.102Z,35.80
2018-07-20T13:06:00.600Z,35.10
2018-07-20T13:08:29.222Z,35.00
2018-07-20T13:10:57.911Z,34.90
2018-07-20T13:13:26.452Z,33.50
2018-07-20T13:15:56.396Z,34.60
2018-07-20T13:18:24.967Z,32.20
2018-07-20T13:20:53.744Z,30.50
2018-07-20T13:23:22.336Z,29.60
2018-07-20T13:25:53.582Z,29.70
2018-07-20T13:28:22.129Z,30.00
2018-07-20T13:30:50.674Z,30.00
2018-07-20T13:33:19.202Z,32.10
2018-07-20T13:35:47.863Z,32.70
2018-07-20T13:38:16.400Z,31.20
2018-07-20T13:40:44.937Z,30.30
2018-07-20T13:43:13.664Z,29.80
2018-07-20T13:45:42.235Z,30.20
2018-07-20T13:48:10.749Z,29.60
2018-07-20T13:50:39.266Z,29.30
2018-07-20T13:53:07.830Z,29.80
2018-07-20T13:55:36.361Z,30.20
2018-07-20T13:58:05.121Z,32.20
2018-07-20T14:00:36.409Z,31.10
2018-07-20T14:03:05.089Z,31.20
2018-07-20T14:05:33.603Z,31.80
2018-07-20T14:08:02.452Z,30.60
2018-07-20T14:10:31.019Z,29.70
2018-07-20T14:12:59.587Z,30.20
2018-07-20T14:15:28.236Z,30.60
2018-07-20T14:20:25.079Z,30.10
2018-07-20T14:22:53.633Z,29.80
2018-07-20T14:25:22.487Z,30.80
2018-07-20T14:27:51.013Z,30.70
2018-07-20T14:30:19.672Z,31.40
2018-07-20T14:32:48.198Z,30.80
2018-07-20T14:35:17.234Z,29.80
2018-07-20T14:37:45.873Z,29.60
2018-07-20T14:40:16.135Z,29.50
2018-07-20T14:42:45.685Z,29.80
2018-07-20T14:45:14.463Z,29.20
2018-07-20T14:47:42.996Z,29.00
2018-07-20T14:50:11.568Z,29.20
2018-07-20T14:52:40.083Z,29.30
2018-07-20T14:55:08.602Z,29.50
2018-07-20T14:57:37.689Z,30.10
2018-07-20T15:00:06.505Z,30.60
2018-07-20T15:02:35.180Z,30.70
2018-07-20T15:05:03.784Z,30.60
2018-07-20T15:07:33.524Z,30.40
2018-07-20T15:10:03.572Z,29.50
2018-07-20T15:12:32.255Z,29.10
2018-07-20T15:15:00.874Z,28.60
2018-07-20T15:17:29.408Z,27.90
2018-07-20T15:19:57.912Z,27.90
2018-07-20T15:22:26.465Z,27.80
2018-07-20T15:24:54.998Z,27.40
2018-07-20T15:27:23.625Z,27.30
2018-07-20T15:29:52.179Z,27.30
2018-07-20T15:32:20.744Z,27.40
2018-07-20T15:34:49.372Z,27.60
2018-07-20T15:37:17.914Z,27.80
2018-07-20T15:39:46.566Z,28.00
2018-07-20T15:42:15.138Z,28.00
2018-07-20T15:44:43.768Z,28.10
2018-07-20T15:47:12.347Z,27.80
2018-07-20T15:49:40.926Z,27.60
2018-07-20T15:54:39.952Z,27.30
2018-07-20T15:57:08.494Z,27.70
2018-07-20T15:59:37.951Z,27.90
2018-07-20T16:02:06.849Z,27.90
2018-07-20T16:04:35.398Z,27.30
2018-07-20T16:07:04.011Z,26.90
2018-07-20T16:09:32.546Z,26.80
2018-07-20T16:12:01.132Z,26.70
2018-07-20T16:14:29.699Z,26.70
2018-07-20T16:16:59.618Z,26.40
2018-07-20T16:19:28.105Z,26.20
2018-07-20T16:21:56.760Z,26.00
2018-07-20T16:24:26.466Z,25.90
2018-07-20T16:26:54.969Z,25.90
2018-07-20T16:29:23.514Z,25.80
2018-07-20T16:31:52.045Z,25.70
2018-07-20T16:34:20.583Z,25.70
2018-07-20T16:36:49.146Z,25.60
2018-07-20T16:39:17.670Z,25.50
2018-07-20T16:41:46.729Z,25.40
2018-07-20T16:44:15.253Z,25.40
2018-07-20T16:46:43.808Z,25.30
2018-07-20T16:49:12.329Z,25.30
2018-07-20T16:51:40.964Z,25.40
2018-07-20T16:54:10.040Z,25.20
2018-07-20T16:56:38.567Z,25.00
2018-07-20T16:59:07.154Z,24.90
2018-07-20T17:01:36.825Z,24.90
2018-07-20T17:04:05.942Z,24.80
2018-07-20T17:06:34.493Z,24.80
2018-07-20T17:09:03.136Z,24.70
2018-07-20T17:11:31.713Z,24.70
2018-07-20T17:14:00.268Z,24.60
2018-07-20T17:16:28.794Z,24.50
2018-07-20T17:18:57.309Z,24.50
2018-07-20T17:21:26.684Z,24.50
2018-07-20T17:23:55.235Z,24.50
2018-07-20T17:26:24.431Z,24.40
2018-07-20T17:28:52.992Z,24.30
2018-07-20T17:31:21.516Z,24.10
2018-07-20T17:33:50.037Z,24.10
2018-07-20T17:36:18.605Z,24.10
2018-07-20T17:38:47.686Z,24.10
2018-07-20T17:41:16.450Z,24.20
2018-07-20T17:43:45.034Z,24.10
2018-07-20T17:46:13.608Z,24.20
2018-07-20T17:48:42.165Z,24.20
2018-07-20T17:51:10.723Z,24.20
2018-07-20T17:53:39.257Z,24.20
2018-07-20T17:56:07.888Z,24.20
2018-07-20T17:58:37.013Z,24.10
2018-07-20T18:01:05.700Z,24.00
2018-07-20T18:03:34.562Z,24.00
2018-07-20T18:06:03.110Z,23.90
2018-07-20T18:08:31.660Z,23.90
2018-07-20T18:11:00.272Z,23.80
2018-07-20T18:13:28.856Z,23.70
2018-07-20T18:15:57.485Z,23.80
2018-07-20T18:18:26.016Z,23.90
2018-07-20T18:20:54.744Z,23.80
2018-07-20T18:23:23.259Z,23.80
2018-07-20T18:25:51.770Z,23.70
2018-07-20T18:28:20.407Z,23.70
2018-07-20T18:30:49.033Z,23.60
2018-07-20T18:33:17.642Z,23.70
2018-07-20T18:35:46.194Z,23.70
2018-07-20T18:38:15.135Z,23.70
2018-07-20T18:40:43.628Z,23.60
2018-07-20T18:43:12.836Z,23.50
2018-07-20T18:45:41.433Z,23.50
2018-07-20T18:48:09.957Z,23.40
2018-07-20T18:50:38.541Z,23.40
2018-07-20T18:53:07.176Z,23.40
2018-07-20T18:55:35.682Z,23.40
2018-07-20T18:58:04.266Z,23.40
2018-07-20T19:00:32.839Z,23.30
2018-07-20T19:05:29.729Z,23.20
2018-07-20T19:07:58.245Z,23.20
2018-07-20T19:10:26.760Z,23.20
2018-07-20T19:12:55.346Z,23.20
2018-07-20T19:15:24.018Z,23.10
2018-07-20T19:17:52.561Z,23.10
2018-07-20T19:20:21.183Z,23.10
2018-07-20T19:22:49.729Z,23.10
2018-07-20T19:25:18.352Z,23.10
2018-07-20T19:27:46.930Z,23.00
2018-07-20T19:30:15.982Z,23.00
2018-07-20T19:32:44.559Z,23.00
2018-07-20T19:35:13.088Z,23.00
2018-07-20T19:37:42.574Z,22.90
2018-07-20T19:40:11.119Z,22.80
2018-07-20T19:42:39.849Z,23.00
2018-07-20T19:45:08.388Z,22.80
2018-07-20T19:47:37.005Z,22.70
2018-07-20T19:50:05.926Z,22.70
2018-07-20T19:52:34.444Z,22.70
2018-07-20T19:55:03.873Z,22.70
2018-07-20T19:57:32.443Z,22.60
2018-07-20T20:00:01.389Z,22.50
2018-07-20T20:02:30.156Z,22.50
2018-07-20T20:04:58.699Z,22.30
2018-07-20T20:07:27.247Z,22.10
2018-07-20T20:09:56.434Z,22.00
2018-07-20T20:12:25.542Z,22.00
2018-07-20T20:14:54.222Z,22.20
2018-07-20T20:17:22.807Z,22.20
2018-07-20T20:19:51.456Z,22.10
2018-07-20T20:22:20.012Z,22.10
2018-07-20T20:24:48.539Z,22.10
2018-07-20T20:27:17.107Z,22.10
2018-07-20T20:29:46.846Z,22.00
2018-07-20T20:32:15.446Z,21.90
2018-07-20T20:34:44.109Z,21.90
2018-07-20T20:37:12.680Z,22.00
2018-07-20T20:39:41.224Z,22.00
2018-07-20T20:42:09.777Z,21.90
2018-07-20T20:44:38.284Z,21.80
2018-07-20T20:47:06.819Z,21.80
2018-07-20T20:49:35.470Z,21.80
2018-07-20T20:52:04.011Z,21.80
2018-07-20T20:54:32.568Z,21.70
2018-07-20T20:57:02.101Z,21.70
2018-07-20T20:59:30.609Z,21.60
2018-07-20T21:01:59.127Z,21.50
2018-07-20T21:04:27.738Z,21.40
2018-07-20T21:06:56.276Z,21.30
2018-07-20T21:09:25.051Z,21.20
2018-07-20T21:11:53.645Z,20.90
2018-07-20T21:14:22.327Z,21.10
2018-07-20T21:16:50.866Z,21.10
2018-07-20T21:19:19.450Z,21.10
2018-07-20T21:21:48.030Z,21.30
2018-07-20T21:24:18.739Z,21.30
2018-07-20T21:26:47.323Z,21.40
2018-07-20T21:31:45.404Z,21.10
2018-07-20T21:34:13.988Z,21.00
2018-07-20T21:36:42.527Z,21.10
2018-07-20T21:39:12.693Z,21.00
2018-07-20T21:44:10.799Z,20.50
2018-07-20T21:46:40.225Z,20.50
2018-07-20T21:49:08.812Z,20.20
2018-07-20T21:51:37.356Z,19.90
2018-07-20T21:54:05.940Z,19.90
2018-07-20T21:56:34.532Z,19.70
2018-07-20T21:59:03.089Z,19.50
2018-07-20T22:01:31.835Z,19.30
2018-07-20T22:06:53.477Z,19.00
2018-07-20T22:09:22.059Z,18.80
2018-07-20T22:11:50.685Z,18.90
2018-07-20T22:14:19.262Z,18.70
2018-07-20T22:16:47.815Z,18.80
2018-07-20T22:19:16.755Z,18.70
2018-07-20T22:21:45.290Z,18.70
2018-07-20T22:24:14.867Z,18.60
2018-07-20T22:26:43.382Z,18.70
2018-07-20T22:29:11.925Z,18.70
2018-07-20T22:31:40.481Z,18.70
2018-07-20T22:34:09.031Z,18.70
2018-07-20T22:36:37.594Z,18.80
2018-07-20T22:39:09.419Z,18.80
2018-07-20T22:41:38.058Z,18.80
2018-07-20T22:44:06.922Z,19.10
2018-07-20T22:46:35.486Z,19.20
2018-07-20T22:49:04.084Z,19.20
2018-07-20T22:51:32.589Z,19.20
2018-07-20T22:54:01.306Z,19.20
2018-07-20T22:56:29.844Z,19.40
2018-07-20T22:58:58.399Z,19.50
2018-07-20T23:01:26.937Z,19.50
2018-07-20T23:03:56.042Z,19.20
2018-07-20T23:06:24.540Z,19.20
2018-07-20T23:08:53.137Z,19.30
2018-07-20T23:11:21.667Z,19.10
2018-07-20T23:13:50.157Z,19.10
2018-07-20T23:16:19.043Z,19.00
2018-07-20T23:18:47.556Z,18.70
2018-07-20T23:21:16.081Z,18.60
2018-07-20T23:23:44.596Z,18.50
2018-07-20T23:26:14.113Z,18.30
2018-07-20T23:28:42.646Z,18.30
2018-07-20T23:31:11.152Z,18.30
2018-07-20T23:33:39.655Z,18.10
2018-07-20T23:36:08.229Z,18.00
2018-07-20T23:38:36.833Z,17.90
2018-07-20T23:41:05.382Z,17.70
2018-07-20T23:43:35.229Z,17.50
2018-07-20T23:46:03.760Z,17.30
2018-07-20T23:48:32.261Z,17.30
2018-07-20T23:51:01.184Z,17.30
2018-07-20T23:53:29.777Z,17.40
2018-07-20T23:55:58.308Z,17.70
2018-07-20T23:58:26.824Z,17.80
